Time;durP1;ratioP1;P1;durP2;ratioP2;P2;SDS_P1;SDS_P2;PMS_P1;PMS_P2;Temp;Humidity;BMP_temperature;BMP_pressure;BME280_temperature;BME280_humidity;BME280_pressure;Samples;Min_cycle;Max_cycle;Signal;HPM_P1;HPM_P2
2023/06/20 00:00:58;;;;;;;11.20;8.98;;;;;23.30;98236.00;;;;5074067;28;20451;-60
2023/06/20 00:03:33;;;;;;;9.43;8.48;;;;;23.20;98227.00;;;;5072944;28;20050;-59
2023/06/20 00:06:02;;;;;;;9.98;8.82;;;;;23.00;98224.00;;;;5073988;28;20492;-59
2023/06/20 00:08:29;;;;;;;10.50;9.48;;;;;23.00;98227.00;;;;5072509;28;20501;-58
2023/06/20 00:10:55;;;;;;;10.20;9.05;;;;;23.00;98227.00;;;;5072313;28;20047;-58
2023/06/20 00:13:22;;;;;;;9.63;8.73;;;;;23.00;98226.00;;;;5073568;28;20040;-59
2023/06/20 00:15:48;;;;;;;9.27;8.23;;;;;23.10;98232.00;;;;5073445;28;20413;-59
2023/06/20 00:18:17;;;;;;;10.23;9.05;;;;;23.10;98231.00;;;;5073272;28;20047;-60
2023/06/20 00:20:46;;;;;;;10.45;9.45;;;;;23.10;98231.00;;;;5074111;28;20564;-60
2023/06/20 00:23:12;;;;;;;9.70;8.80;;;;;23.10;98233.00;;;;5074374;28;20045;-60
2023/06/20 00:25:39;;;;;;;11.50;9.25;;;;;23.10;98233.00;;;;5072812;28;20113;-60
2023/06/20 00:28:08;;;;;;;9.48;8.50;;;;;23.10;98233.00;;;;5073194;28;20132;-60
2023/06/20 00:30:34;;;;;;;10.90;9.25;;;;;23.00;98236.00;;;;5073192;28;20093;-59
2023/06/20 00:33:01;;;;;;;9.82;8.52;;;;;23.10;98225.00;;;;5071855;28;20048;-59
2023/06/20 00:35:28;;;;;;;10.02;9.07;;;;;23.00;98227.00;;;;5073426;28;20441;-60
2023/06/20 00:37:55;;;;;;;11.80;9.25;;;;;23.00;98229.00;;;;5072305;28;20068;-60
2023/06/20 00:40:21;;;;;;;9.80;8.82;;;;;23.10;98233.00;;;;5074192;28;20055;-60
2023/06/20 00:42:49;;;;;;;9.95;8.98;;;;;23.10;98234.00;;;;5072702;28;20063;-60
2023/06/20 00:45:26;;;;;;;10.40;9.25;;;;;23.20;98243.00;;;;5056362;28;20462;-60
2023/06/20 00:47:53;;;;;;;11.98;10.13;;;;;23.30;98263.00;;;;5071946;28;20406;-59
2023/06/20 00:50:27;;;;;;;13.25;9.82;;;;;23.30;98270.00;;;;5073527;28;20056;-60
2023/06/20 00:53:00;;;;;;;10.30;9.35;;;;;23.20;98247.00;;;;5106001;27;20501;-60
2023/06/20 00:55:28;;;;;;;;;;;;;23.10;98236.00;;;;5074061;28;20471;-60
2023/06/20 00:57:59;;;;;;;10.70;9.70;;;;;22.90;98236.00;;;;5073275;28;19967;-60
2023/06/20 01:00:33;;;;;;;10.20;9.07;;;;;22.80;98237.00;;;;5073038;28;20401;-60
2023/06/20 01:03:13;;;;;;;9.90;9.00;;;;;22.80;98230.00;;;;5074223;28;20060;-60
2023/06/20 01:05:45;;;;;;;9.82;8.50;;;;;22.80;98238.00;;;;5073223;28;20055;-60
2023/06/20 01:08:21;;;;;;;11.20;8.95;;;;;22.90;98233.00;;;;5072336;28;20094;-60
2023/06/20 01:11:08;;;;;;;9.32;8.52;;;;;23.00;98235.00;;;;5074048;28;20429;-60
2023/06/20 01:13:48;;;;;;;9.73;8.73;;;;;23.00;98231.00;;;;5092028;28;20048;-60
2023/06/20 01:16:18;;;;;;;9.52;8.60;;;;;23.00;98236.00;;;;5072647;28;20087;-60
2023/06/20 01:18:55;;;;;;;8.95;8.05;;;;;22.90;98232.00;;;;5073472;28;20448;-60
2023/06/20 01:21:31;;;;;;;9.10;8.20;;;;;23.00;98240.00;;;;5089757;28;20548;-60
2023/06/20 01:24:15;;;;;;;8.70;7.80;;;;;23.10;98249.00;;;;5106346;28;20048;-60
2023/06/20 01:27:08;;;;;;;;;;;;;23.10;98254.00;;;;5058061;28;20052;-60
2023/06/20 01:29:50;;;;;;;9.93;8.57;;;;;23.00;98255.00;;;;5103103;28;19925;-59
2023/06/20 01:32:18;;;;;;;9.00;8.20;;;;;23.00;98280.00;;;;5071295;28;20072;-59
2023/06/20 01:34:49;;;;;;;9.27;8.48;;;;;23.00;98289.00;;;;5071079;28;20052;-60
2023/06/20 01:37:19;;;;;;;9.45;8.55;;;;;23.00;98300.00;;;;5072907;28;20074;-60
2023/06/20 01:39:56;;;;;;;11.45;10.43;;;;;23.00;98298.00;;;;5074094;28;20507;-58
2023/06/20 01:42:24;;;;;;;11.43;9.63;;;;;23.00;98286.00;;;;5075041;28;20640;-57
2023/06/20 01:44:53;;;;;;;11.05;9.95;;;;;23.00;98279.00;;;;5074640;28;20048;-60
2023/06/20 01:47:21;;;;;;;12.55;11.20;;;;;23.10;98281.00;;;;5072915;28;20582;-59
2023/06/20 01:49:53;;;;;;;12.15;10.73;;;;;23.00;98266.00;;;;5072715;28;20060;-59
2023/06/20 01:52:22;;;;;;;12.30;10.73;;;;;22.90;98264.00;;;;5073768;28;20235;-60
2023/06/20 01:54:50;;;;;;;15.40;12.50;;;;;22.90;98250.00;;;;5073982;28;20489;-59
2023/06/20 01:57:17;;;;;;;16.55;12.07;;;;;22.80;98232.00;;;;5076258;28;20040;-59
2023/06/20 01:59:46;;;;;;;12.07;10.40;;;;;22.70;98202.00;;;;5074930;28;20048;-59
2023/06/20 02:02:14;;;;;;;12.82;10.45;;;;;22.50;98226.00;;;;5108651;28;20053;-59
2023/06/20 02:04:41;;;;;;;15.88;11.70;;;;;22.60;98249.00;;;;5077543;28;20044;-59
2023/06/20 02:07:09;;;;;;;15.95;12.93;;;;;22.50;98242.00;;;;5077688;28;20127;-58
2023/06/20 02:09:38;;;;;;;15.63;12.15;;;;;22.40;98239.00;;;;5076820;28;20409;-61
2023/06/20 02:12:07;;;;;;;15.90;12.82;;;;;22.40;98231.00;;;;5076284;28;20078;-59
2023/06/20 02:14:36;;;;;;;13.05;11.23;;;;;22.40;98237.00;;;;5074494;28;20044;-59
2023/06/20 02:17:05;;;;;;;15.00;11.88;;;;;22.40;98228.00;;;;5074737;28;20136;-59
2023/06/20 02:19:32;;;;;;;14.40;11.23;;;;;22.40;98215.00;;;;5075381;28;20099;-59
2023/06/20 02:22:00;;;;;;;12.82;11.52;;;;;22.30;98206.00;;;;5075875;28;20032;-59
2023/06/20 02:24:33;;;;;;;13.23;11.93;;;;;22.30;98218.00;;;;5076931;28;20401;-57
2023/06/20 02:27:05;;;;;;;15.75;12.05;;;;;22.40;98221.00;;;;5104533;28;20044;-58
2023/06/20 02:29:37;;;;;;;13.60;12.13;;;;;22.50;98236.00;;;;5071785;28;20631;-57
2023/06/20 02:32:05;;;;;;;12.45;11.13;;;;;22.50;98227.00;;;;5103982;28;20066;-60
2023/06/20 02:34:41;;;;;;;13.38;11.05;;;;;22.30;98212.00;;;;5071644;28;20513;-60
2023/06/20 02:37:09;;;;;;;13.25;11.65;;;;;22.30;98209.00;;;;5070259;28;20106;-60
2023/06/20 02:39:35;;;;;;;13.05;11.75;;;;;22.30;98216.00;;;;5070110;28;20055;-61
2023/06/20 02:42:02;;;;;;;15.25;12.13;;;;;22.30;98206.00;;;;5070366;28;20082;-60
2023/06/20 02:44:29;;;;;;;15.45;12.63;;;;;22.10;98201.00;;;;5071589;28;20036;-60
2023/06/20 02:47:22;;;;;;;14.18;11.43;;;;;22.10;98209.00;;;;5072294;28;20087;-60
2023/06/20 02:49:56;;;;;;;;;;;;;22.20;98217.00;;;;5074258;28;20108;-60
2023/06/20 02:52:31;;;;;;;12.70;11.50;;;;;22.10;98216.00;;;;5073951;28;19955;-60
2023/06/20 02:55:14;;;;;;;13.15;11.75;;;;;22.10;98215.00;;;;5107691;28;20076;-60
2023/06/20 02:57:46;;;;;;;13.82;11.18;;;;;22.10;98213.00;;;;5073894;28;20076;-58
2023/06/20 03:00:16;;;;;;;12.38;11.07;;;;;22.20;98211.00;;;;5074994;28;20036;-60
2023/06/20 03:02:51;;;;;;;12.48;11.15;;;;;22.30;98221.00;;;;5074068;28;20044;-60
2023/06/20 03:05:19;;;;;;;12.20;10.95;;;;;22.20;98215.00;;;;5075435;28;20206;-59
2023/06/20 03:07:47;;;;;;;13.02;11.52;;;;;22.30;98217.00;;;;5075566;28;20055;-59
2023/06/20 03:10:15;;;;;;;12.60;11.30;;;;;22.30;98209.00;;;;5075295;28;20041;-59
2023/06/20 03:12:42;;;;;;;14.13;11.65;;;;;22.30;98214.00;;;;5075546;28;20062;-60
2023/06/20 03:15:09;;;;;;;12.77;11.40;;;;;22.30;98218.00;;;;5073723;28;20045;-59
2023/06/20 03:17:39;;;;;;;13.00;11.18;;;;;22.30;98224.00;;;;5075224;28;20080;-59
2023/06/20 03:20:09;;;;;;;13.07;11.68;;;;;22.30;98218.00;;;;5074093;28;20071;-59
2023/06/20 03:22:37;;;;;;;14.65;12.82;;;;;22.30;98225.00;;;;5074004;28;20517;-60
2023/06/20 03:25:04;;;;;;;13.20;11.80;;;;;22.30;98232.00;;;;5073901;28;20048;-60
2023/06/20 03:27:31;;;;;;;12.52;11.25;;;;;22.30;98231.00;;;;5073656;28;20468;-59
2023/06/20 03:30:03;;;;;;;13.23;11.80;;;;;22.30;98229.00;;;;5072926;28;20474;-59
2023/06/20 03:32:33;;;;;;;14.93;12.25;;;;;22.30;98227.00;;;;5073456;28;20155;-58
2023/06/20 03:35:03;;;;;;;13.05;11.77;;;;;22.40;98231.00;;;;5073620;28;20405;-59
2023/06/20 03:37:30;;;;;;;16.10;12.68;;;;;22.40;98228.00;;;;5073321;28;20639;-60
2023/06/20 03:39:57;;;;;;;15.25;11.52;;;;;22.40;98232.00;;;;5072802;28;20489;-60
2023/06/20 03:42:24;;;;;;;12.77;11.55;;;;;22.40;98237.00;;;;5073039;28;20045;-60
2023/06/20 03:44:50;;;;;;;15.05;12.85;;;;;22.40;98237.00;;;;5074209;28;20405;-58
2023/06/20 03:47:18;;;;;;;13.27;11.68;;;;;22.30;98237.00;;;;5072878;28;20045;-60
2023/06/20 03:49:45;;;;;;;14.73;13.15;;;;;22.30;98234.00;;;;5106442;28;20056;-60
2023/06/20 03:52:13;;;;;;;14.25;12.82;;;;;22.30;98235.00;;;;5073125;28;20192;-60
2023/06/20 03:54:41;;;;;;;14.98;13.48;;;;;22.30;98236.00;;;;5072895;28;20044;-60
2023/06/20 03:57:08;;;;;;;15.27;12.80;;;;;22.40;98237.00;;;;5072557;28;20044;-59
2023/06/20 03:59:35;;;;;;;13.73;12.32;;;;;22.40;98242.00;;;;5072258;28;20494;-59
2023/06/20 04:02:04;;;;;;;14.98;13.40;;;;;22.50;98242.00;;;;5074034;28;20090;-58
2023/06/20 04:04:31;;;;;;;14.63;12.18;;;;;22.50;98243.00;;;;5074232;28;20040;-58
2023/06/20 04:07:01;;;;;;;13.38;12.00;;;;;22.40;98244.00;;;;5072717;28;20135;-59
2023/06/20 04:09:28;;;;;;;13.80;12.27;;;;;22.40;98249.00;;;;5072667;28;20044;-60
2023/06/20 04:11:55;;;;;;;17.35;14.05;;;;;22.50;98254.00;;;;5073835;28;20119;-59
2023/06/20 04:14:22;;;;;;;13.48;12.05;;;;;22.50;98247.00;;;;5072458;28;20053;-60
2023/06/20 04:16:49;;;;;;;15.63;13.25;;;;;22.60;98246.00;;;;5072583;28;20064;-59
2023/06/20 04:19:17;;;;;;;16.25;13.30;;;;;22.60;98238.00;;;;5072219;28;20044;-58
2023/06/20 04:21:44;;;;;;;13.90;12.43;;;;;22.60;98241.00;;;;5072744;28;20390;-59
2023/06/20 04:24:11;;;;;;;14.23;12.63;;;;;22.70;98231.00;;;;5072493;28;20118;-59
2023/06/20 04:26:38;;;;;;;12.90;11.65;;;;;22.80;98236.00;;;;5072629;28;20059;-59
2023/06/20 04:29:04;;;;;;;16.02;13.25;;;;;22.90;98235.00;;;;5106251;28;20044;-59
2023/06/20 04:31:33;;;;;;;13.18;11.77;;;;;23.00;98236.00;;;;5055908;28;20076;-60
2023/06/20 04:34:00;;;;;;;14.95;11.80;;;;;23.00;98241.00;;;;5072147;28;20074;-60
2023/06/20 04:36:29;;;;;;;17.90;16.00;;;;;23.10;98234.00;;;;5072269;28;20048;-60
2023/06/20 04:39:00;;;;;;;18.95;15.20;;;;;23.20;98232.00;;;;5071272;28;20040;-59
2023/06/20 04:41:26;;;;;;;14.25;12.85;;;;;23.30;98227.00;;;;5073570;28;20465;-60
2023/06/20 04:43:53;;;;;;;13.00;11.60;;;;;23.40;98226.00;;;;5072319;28;20044;-59
2023/06/20 04:46:20;;;;;;;15.25;12.60;;;;;23.50;98227.00;;;;5073080;28;20036;-59
2023/06/20 04:48:47;;;;;;;13.27;11.90;;;;;23.60;98231.00;;;;5073128;28;20040;-58
2023/06/20 04:51:16;;;;;;;13.23;11.48;;;;;23.60;98229.00;;;;5105186;28;20136;-57
2023/06/20 04:53:42;;;;;;;14.38;12.80;;;;;23.60;98230.00;;;;5071684;28;20531;-58
2023/06/20 04:56:09;;;;;;;13.38;12.07;;;;;23.60;98236.00;;;;5074163;28;20048;-58
2023/06/20 04:58:36;;;;;;;14.75;12.85;;;;;23.60;98237.00;;;;5071675;28;20090;-58
2023/06/20 05:01:03;;;;;;;13.63;12.32;;;;;23.70;98239.00;;;;5072654;28;20040;-59
2023/06/20 05:03:30;;;;;;;13.07;11.85;;;;;23.70;98244.00;;;;5071447;28;20049;-59
2023/06/20 05:05:57;;;;;;;14.85;12.82;;;;;23.70;98246.00;;;;5071252;28;20051;-59
2023/06/20 05:08:24;;;;;;;12.30;11.10;;;;;23.70;98252.00;;;;5105251;28;20067;-59
2023/06/20 05:10:50;;;;;;;14.65;13.20;;;;;23.80;98254.00;;;;5070240;28;20382;-59
2023/06/20 05:13:17;;;;;;;16.33;11.70;;;;;23.80;98255.00;;;;5072588;28;20067;-59
2023/06/20 05:15:43;;;;;;;13.30;12.10;;;;;23.70;98265.00;;;;5071864;28;20072;-59
2023/06/20 05:18:10;;;;;;;13.43;12.00;;;;;23.70;98260.00;;;;5072675;28;20094;-60
2023/06/20 05:20:37;;;;;;;14.65;13.23;;;;;23.80;98260.00;;;;5071398;28;20051;-61
2023/06/20 05:23:03;;;;;;;14.25;12.75;;;;;23.90;98258.00;;;;5072546;28;20068;-60
2023/06/20 05:25:31;;;;;;;13.93;11.50;;;;;23.80;98255.00;;;;5072642;28;20041;-59
2023/06/20 05:27:58;;;;;;;12.15;10.82;;;;;23.90;98259.00;;;;5072541;28;20456;-60
2023/06/20 05:30:24;;;;;;;11.98;10.77;;;;;23.90;98259.00;;;;5071994;28;20044;-59
2023/06/20 05:32:52;;;;;;;12.00;10.80;;;;;24.00;98261.00;;;;5072114;28;20060;-60
2023/06/20 05:35:19;;;;;;;12.85;11.48;;;;;24.00;98249.00;;;;5070744;28;20075;-60
2023/06/20 05:37:49;;;;;;;11.73;10.52;;;;;24.00;98261.00;;;;5072169;28;20101;-61
2023/06/20 05:40:16;;;;;;;12.00;10.85;;;;;24.00;98264.00;;;;5071880;28;20041;-59
2023/06/20 05:42:42;;;;;;;12.23;11.02;;;;;23.90;98254.00;;;;5072292;28;20056;-60
2023/06/20 05:45:10;;;;;;;11.82;10.63;;;;;24.00;98262.00;;;;5072098;28;20083;-60
2023/06/20 05:47:36;;;;;;;11.43;10.40;;;;;24.10;98266.00;;;;5072188;28;20084;-58
2023/06/20 05:50:03;;;;;;;12.45;11.32;;;;;24.10;98268.00;;;;5104131;28;20051;-59
2023/06/20 05:52:30;;;;;;;11.60;10.48;;;;;24.00;98264.00;;;;5071928;28;20052;-59
2023/06/20 05:54:57;;;;;;;12.75;11.40;;;;;24.00;98264.00;;;;5071837;28;20058;-59
2023/06/20 05:57:24;;;;;;;12.80;11.50;;;;;23.90;98257.00;;;;5072158;28;20413;-59
2023/06/20 05:59:51;;;;;;;12.55;11.35;;;;;23.90;98257.00;;;;5071917;28;20045;-59
2023/06/20 06:02:20;;;;;;;13.02;11.73;;;;;24.00;98250.00;;;;5071949;28;20044;-59
2023/06/20 06:04:48;;;;;;;12.95;11.65;;;;;24.20;98253.00;;;;5104467;28;20045;-57
2023/06/20 06:07:15;;;;;;;11.90;10.80;;;;;24.30;98253.00;;;;5070264;28;20140;-58
2023/06/20 06:09:41;;;;;;;12.32;11.20;;;;;24.40;98256.00;;;;5071392;28;20044;-57
2023/06/20 06:12:12;;;;;;;11.73;10.57;;;;;24.50;98249.00;;;;5071975;28;20487;-56
2023/06/20 06:14:38;;;;;;;12.55;11.25;;;;;24.60;98253.00;;;;5072295;28;20468;-58
2023/06/20 06:17:06;;;;;;;11.45;10.45;;;;;24.70;98261.00;;;;5071250;28;20075;-57
2023/06/20 06:19:34;;;;;;;11.10;10.00;;;;;24.80;98271.00;;;;5071077;28;20558;-59
2023/06/20 06:22:01;;;;;;;10.95;9.90;;;;;24.80;98265.00;;;;5074499;28;20045;-57
2023/06/20 06:24:27;;;;;;;10.98;9.88;;;;;24.80;98268.00;;;;5075827;28;20080;-57
2023/06/20 06:26:54;;;;;;;11.32;10.23;;;;;24.90;98263.00;;;;5075438;28;20044;-58
2023/06/20 06:29:21;;;;;;;11.48;10.45;;;;;25.00;98266.00;;;;5075689;28;20562;-58
2023/06/20 06:31:47;;;;;;;11.88;10.77;;;;;25.10;98280.00;;;;5075655;28;20098;-59
2023/06/20 06:34:18;;;;;;;13.68;11.65;;;;;25.00;98273.00;;;;5075405;28;20055;-60
2023/06/20 06:36:48;;;;;;;12.45;11.35;;;;;25.00;98273.00;;;;5075698;28;20052;-58
2023/06/20 06:39:17;;;;;;;11.30;10.30;;;;;25.10;98282.00;;;;5075363;28;20124;-58
2023/06/20 06:41:47;;;;;;;12.63;11.43;;;;;25.10;98279.00;;;;5075508;28;20401;-61
2023/06/20 06:44:14;;;;;;;13.32;11.93;;;;;25.20;98274.00;;;;5075392;28;20044;-58
2023/06/20 06:46:41;;;;;;;12.65;11.50;;;;;25.20;98272.00;;;;5073873;28;20052;-58
2023/06/20 06:49:08;;;;;;;11.35;10.35;;;;;25.20;98268.00;;;;5074929;28;20052;-57
2023/06/20 06:51:36;;;;;;;12.60;11.43;;;;;25.20;98264.00;;;;5073929;28;20120;-59
2023/06/20 06:54:03;;;;;;;11.73;10.73;;;;;25.40;98268.00;;;;5074843;28;20128;-57
2023/06/20 06:56:30;;;;;;;12.27;11.07;;;;;25.50;98265.00;;;;5074805;28;20044;-57
2023/06/20 06:59:00;;;;;;;11.43;10.32;;;;;25.60;98262.00;;;;5073716;28;20105;-57
2023/06/20 07:01:30;;;;;;;11.02;9.98;;;;;25.70;98263.00;;;;5074907;28;20048;-57
2023/06/20 07:03:57;;;;;;;12.35;10.63;;;;;25.70;98253.00;;;;5075152;28;20590;-57
2023/06/20 07:06:23;;;;;;;11.32;10.27;;;;;25.70;98254.00;;;;5075003;28;20044;-57
2023/06/20 07:08:52;;;;;;;11.68;10.57;;;;;25.60;98259.00;;;;5074723;28;20086;-60
2023/06/20 07:11:19;;;;;;;12.15;11.00;;;;;25.60;98259.00;;;;5074876;28;20044;-59
2023/06/20 07:13:45;;;;;;;13.95;12.55;;;;;25.70;98270.00;;;;5074972;28;20048;-58
2023/06/20 07:16:12;;;;;;;11.63;10.38;;;;;25.90;98259.00;;;;5074813;28;20082;-59
2023/06/20 07:18:38;;;;;;;11.68;10.18;;;;;25.90;98256.00;;;;5074589;28;20074;-59
2023/06/20 07:21:05;;;;;;;11.45;10.35;;;;;26.00;98247.00;;;;5073531;28;20072;-58
2023/06/20 07:23:34;;;;;;;11.15;9.65;;;;;26.10;98249.00;;;;5075115;28;20230;-61
2023/06/20 07:26:01;;;;;;;11.52;10.48;;;;;26.10;98246.00;;;;5074529;28;20410;-58
2023/06/20 07:28:28;;;;;;;10.48;9.60;;;;;26.10;98262.00;;;;5074256;28;20517;-60
2023/06/20 07:30:56;;;;;;;11.57;9.63;;;;;26.10;98267.00;;;;5073020;28;20051;-59
2023/06/20 07:33:23;;;;;;;12.05;10.80;;;;;26.30;98271.00;;;;5074374;28;20127;-56
2023/06/20 07:35:49;;;;;;;13.23;10.40;;;;;26.40;98268.00;;;;5073191;28;20420;-57
2023/06/20 07:38:16;;;;;;;11.15;9.95;;;;;26.50;98274.00;;;;5074067;28;20476;-60
2023/06/20 07:40:46;;;;;;;10.90;9.60;;;;;26.60;98280.00;;;;5074068;28;20045;-58
2023/06/20 07:43:12;;;;;;;9.65;8.65;;;;;26.60;98272.00;;;;5074727;28;20075;-59
2023/06/20 07:45:39;;;;;;;9.32;8.43;;;;;26.70;98271.00;;;;5074958;28;20098;-55
2023/06/20 07:48:06;;;;;;;11.23;10.13;;;;;26.80;98275.00;;;;5073711;28;20037;-56
2023/06/20 07:50:33;;;;;;;11.15;10.05;;;;;26.80;98272.00;;;;5073913;28;20128;-57
2023/06/20 07:53:00;;;;;;;10.32;9.43;;;;;26.90;98274.00;;;;5073692;28;20508;-56
2023/06/20 07:55:26;;;;;;;10.90;9.85;;;;;27.00;98275.00;;;;5073969;28;20071;-56
2023/06/20 07:57:57;;;;;;;10.68;9.68;;;;;26.80;98275.00;;;;5074041;28;20048;-55
2023/06/20 08:00:25;;;;;;;9.95;9.05;;;;;27.00;98275.00;;;;5073715;28;20605;-55
2023/06/20 08:02:52;;;;;;;10.18;9.25;;;;;27.10;98278.00;;;;5073566;28;20498;-61
2023/06/20 08:05:19;;;;;;;8.50;7.70;;;;;27.20;98275.00;;;;5074341;28;20055;-64
2023/06/20 08:07:46;;;;;;;8.95;8.07;;;;;27.20;98278.00;;;;5074091;28;20098;-59
2023/06/20 08:10:16;;;;;;;9.45;8.48;;;;;27.20;98269.00;;;;5072589;28;20093;-60
2023/06/20 08:12:43;;;;;;;9.40;7.72;;;;;27.30;98262.00;;;;5073050;28;20055;-58
2023/06/20 08:15:10;;;;;;;8.25;7.45;;;;;27.40;98264.00;;;;5056399;28;20063;-60
2023/06/20 08:17:37;;;;;;;8.93;8.05;;;;;27.50;98255.00;;;;5074069;28;20115;-59
2023/06/20 08:20:09;;;;;;;9.55;8.10;;;;;27.50;98257.00;;;;5074345;28;20044;-60
2023/06/20 08:22:36;;;;;;;9.30;8.27;;;;;27.60;98259.00;;;;5074364;28;20123;-62
2023/06/20 08:25:03;;;;;;;7.95;6.93;;;;;27.70;98263.00;;;;5073956;28;20520;-60
2023/06/20 08:27:30;;;;;;;8.57;7.78;;;;;27.70;98261.00;;;;5073360;28;20127;-59
2023/06/20 08:29:57;;;;;;;8.40;7.68;;;;;27.70;98257.00;;;;5073126;28;20036;-59
2023/06/20 08:32:23;;;;;;;8.43;7.72;;;;;27.80;98256.00;;;;5073088;28;20064;-59
2023/06/20 08:34:50;;;;;;;9.77;7.63;;;;;27.80;98250.00;;;;5072288;28;20056;-60
2023/06/20 08:37:21;;;;;;;7.75;6.88;;;;;27.90;98247.00;;;;5072613;28;20493;-61
2023/06/20 08:39:49;;;;;;;7.95;7.15;;;;;28.00;98252.00;;;;5073108;28;20049;-60
2023/06/20 08:42:16;;;;;;;8.48;7.57;;;;;28.10;98244.00;;;;5073174;28;20045;-59
2023/06/20 08:44:43;;;;;;;11.55;8.48;;;;;28.20;98243.00;;;;5073324;28;20489;-61
2023/06/20 08:47:24;;;;;;;6.88;6.28;;;;;28.30;98246.00;;;;5072188;28;20048;-61
2023/06/20 08:49:51;;;;;;;8.00;6.82;;;;;28.40;98250.00;;;;5073236;28;20044;-61
2023/06/20 08:52:25;;;;;;;6.90;6.20;;;;;28.50;98247.00;;;;5073662;28;20051;-59
2023/06/20 08:54:52;;;;;;;10.13;6.47;;;;;28.60;98242.00;;;;5075936;28;20045;-60
2023/06/20 08:57:28;;;;;;;8.00;5.82;;;;;28.60;98244.00;;;;5079651;28;20063;-60
2023/06/20 08:59:55;;;;;;;6.57;5.80;;;;;28.60;98242.00;;;;5081482;28;20068;-60
2023/06/20 09:02:22;;;;;;;5.95;5.45;;;;;28.70;98241.00;;;;5081523;28;20097;-61
2023/06/20 09:05:05;;;;;;;5.30;4.80;;;;;28.80;98244.00;;;;5079616;28;20037;-60
2023/06/20 09:07:37;;;;;;;6.70;5.40;;;;;28.90;98243.00;;;;5082037;28;20041;-60
2023/06/20 09:10:09;;;;;;;6.00;5.50;;;;;29.00;98236.00;;;;5081527;28;20052;-60
2023/06/20 09:12:49;;;;;;;6.00;5.40;;;;;29.10;98240.00;;;;5080243;28;20051;-59
2023/06/20 09:15:22;;;;;;;6.35;5.75;;;;;29.20;98242.00;;;;5081786;28;20078;-61
2023/06/20 09:18:01;;;;;;;5.57;4.93;;;;;29.20;98243.00;;;;5079131;28;20532;-60
2023/06/20 09:20:30;;;;;;;6.03;5.30;;;;;29.30;98237.00;;;;5080412;28;20132;-60
2023/06/20 09:22:57;;;;;;;5.35;4.85;;;;;29.30;98245.00;;;;5080100;28;20512;-61
2023/06/20 09:25:27;;;;;;;5.13;4.53;;;;;29.40;98247.00;;;;5078027;28;20485;-60
2023/06/20 09:27:55;;;;;;;5.07;4.47;;;;;29.50;98258.00;;;;5083289;28;20047;-60
2023/06/20 09:30:22;;;;;;;5.78;4.68;;;;;29.50;98255.00;;;;5081899;28;20078;-60
2023/06/20 09:32:51;;;;;;;5.20;4.75;;;;;29.40;98259.00;;;;5076503;28;20508;-60
2023/06/20 09:35:18;;;;;;;4.65;4.20;;;;;29.50;98252.00;;;;5072178;28;20506;-61
2023/06/20 09:37:47;;;;;;;4.75;4.35;;;;;29.50;98252.00;;;;5074726;28;20486;-59
2023/06/20 09:40:16;;;;;;;5.00;4.18;;;;;29.60;98252.00;;;;5076056;28;20682;-59
2023/06/20 09:42:43;;;;;;;5.35;3.97;;;;;29.60;98244.00;;;;5075454;28;20451;-61
2023/06/20 09:45:14;;;;;;;4.47;4.13;;;;;29.70;98238.00;;;;5074889;28;20045;-59
2023/06/20 09:47:43;;;;;;;4.03;3.60;;;;;29.70;98243.00;;;;5073003;28;20049;-60
2023/06/20 09:50:19;;;;;;;4.80;4.22;;;;;29.70;98247.00;;;;5070799;28;20460;-61
2023/06/20 09:52:48;;;;;;;4.53;4.13;;;;;29.80;98243.00;;;;5072790;28;20051;-62
2023/06/20 09:55:16;;;;;;;6.30;3.90;;;;;30.00;98254.00;;;;5073519;28;20446;-60
2023/06/20 09:58:04;;;;;;;4.65;4.05;;;;;30.10;98251.00;;;;5077930;28;20647;-60
2023/06/20 10:00:33;;;;;;;4.13;3.72;;;;;30.20;98254.00;;;;5078926;28;20554;-59
2023/06/20 10:03:06;;;;;;;3.85;3.45;;;;;30.30;98254.00;;;;5078481;28;20044;-60
2023/06/20 10:05:33;;;;;;;6.28;3.63;;;;;30.40;98267.00;;;;5078844;28;20459;-60
2023/06/20 10:08:00;;;;;;;4.43;4.03;;;;;30.40;98262.00;;;;5078377;28;20056;-60
2023/06/20 10:10:27;;;;;;;7.13;3.90;;;;;30.40;98257.00;;;;5078589;28;20574;-60
2023/06/20 10:12:54;;;;;;;5.10;3.75;;;;;30.50;98253.00;;;;5078936;28;20558;-61
2023/06/20 10:15:22;;;;;;;5.25;4.15;;;;;30.50;98246.00;;;;5078749;28;20036;-60
2023/06/20 10:17:49;;;;;;;5.55;4.22;;;;;30.50;98251.00;;;;5078546;28;20051;-61
2023/06/20 10:20:34;;;;;;;4.20;3.80;;;;;30.50;98241.00;;;;5078440;28;20163;-60
2023/06/20 10:23:05;;;;;;;4.43;4.03;;;;;30.50;98245.00;;;;5078688;28;20044;-60
2023/06/20 10:25:33;;;;;;;4.88;4.47;;;;;30.40;98246.00;;;;5079207;28;20048;-60
2023/06/20 10:28:09;;;;;;;4.68;4.28;;;;;30.50;98250.00;;;;5077850;28;20072;-60
2023/06/20 10:30:57;;;;;;;4.47;4.07;;;;;30.60;98243.00;;;;5078469;28;20509;-61
2023/06/20 10:33:26;;;;;;;3.83;3.53;;;;;30.50;98238.00;;;;5078461;28;20040;-60
2023/06/20 10:35:54;;;;;;;6.68;4.22;;;;;30.50;98252.00;;;;5078913;28;20072;-61
2023/06/20 10:38:21;;;;;;;4.45;4.05;;;;;30.60;98246.00;;;;5078433;28;20044;-60
2023/06/20 10:41:15;;;;;;;4.72;4.10;;;;;30.80;98241.00;;;;5078094;28;20567;-61
2023/06/20 10:43:55;;;;;;;4.90;4.28;;;;;30.90;98242.00;;;;5071205;28;20394;-60
2023/06/20 10:46:37;;;;;;;4.63;4.22;;;;;30.90;98226.00;;;;5077153;28;20151;-61
2023/06/20 10:49:06;;;;;;;5.50;4.45;;;;;31.00;98226.00;;;;5078392;28;20068;-60
2023/06/20 10:52:02;;;;;;;4.97;4.57;;;;;31.10;98221.00;;;;5078360;28;20047;-61
2023/06/20 10:54:35;;;;;;;4.70;4.07;;;;;31.20;98222.00;;;;5069809;28;20056;-60
2023/06/20 10:57:02;;;;;;;;;;;;;31.30;98226.00;;;;5078771;28;20083;-60
2023/06/20 10:59:28;;;;;;;4.72;4.32;;;;;31.30;98224.00;;;;5078158;28;20358;-61
2023/06/20 11:01:56;;;;;;;5.43;4.40;;;;;31.30;98231.00;;;;5076838;28;20059;-60
2023/06/20 11:04:22;;;;;;;4.93;4.50;;;;;31.20;98221.00;;;;5078330;28;20072;-61
2023/06/20 11:06:49;;;;;;;5.88;4.72;;;;;31.30;98218.00;;;;5076183;28;20044;-61
2023/06/20 11:09:22;;;;;;;5.03;4.63;;;;;31.40;98215.00;;;;5074160;28;20494;-61
2023/06/20 11:11:49;;;;;;;5.50;4.20;;;;;31.40;98213.00;;;;5074978;28;20036;-61
2023/06/20 11:14:20;;;;;;;5.20;4.70;;;;;31.60;98219.00;;;;5075051;28;20075;-61
2023/06/20 11:16:49;;;;;;;5.10;4.70;;;;;31.60;98215.00;;;;5074762;28;20043;-61
2023/06/20 11:19:20;;;;;;;5.53;4.45;;;;;31.70;98220.00;;;;5074599;28;20436;-61
2023/06/20 11:22:02;;;;;;;4.63;4.18;;;;;31.80;98219.00;;;;5074583;28;20036;-60
2023/06/20 11:24:35;;;;;;;4.65;4.25;;;;;31.80;98227.00;;;;5074569;28;20386;-60
2023/06/20 11:27:13;;;;;;;5.40;4.90;;;;;31.90;98220.00;;;;5073130;28;20044;-61
2023/06/20 11:29:40;;;;;;;5.72;5.13;;;;;31.70;98221.00;;;;5074266;28;20102;-60
2023/06/20 11:32:10;;;;;;;4.95;4.50;;;;;31.60;98220.00;;;;5073126;28;20409;-60
2023/06/20 11:34:54;;;;;;;5.28;4.80;;;;;31.70;98211.00;;;;5074209;28;20048;-60
2023/06/20 11:37:22;;;;;;;6.72;4.38;;;;;31.80;98219.00;;;;5072986;28;20405;-60
2023/06/20 11:39:49;;;;;;;4.82;4.43;;;;;32.00;98213.00;;;;5073826;28;20083;-60
2023/06/20 11:42:16;;;;;;;5.90;4.35;;;;;32.00;98216.00;;;;5074252;28;20036;-63
2023/06/20 11:44:43;;;;;;;4.85;4.25;;;;;32.20;98208.00;;;;5074415;28;20442;-59
2023/06/20 11:47:10;;;;;;;5.90;4.70;;;;;32.30;98212.00;;;;5074137;28;20053;-60
2023/06/20 11:49:41;;;;;;;5.20;4.70;;;;;32.40;98199.00;;;;5074151;28;20461;-60
2023/06/20 11:52:09;;;;;;;4.72;4.22;;;;;32.60;98199.00;;;;5074110;28;20440;-60
2023/06/20 11:54:52;;;;;;;4.85;4.38;;;;;32.60;98203.00;;;;5073435;28;20041;-60
2023/06/20 11:57:26;;;;;;;4.38;3.97;;;;;32.60;98194.00;;;;5074628;28;20044;-60
2023/06/20 11:59:59;;;;;;;6.32;4.40;;;;;32.70;98190.00;;;;5074346;28;20055;-60
2023/06/20 12:02:26;;;;;;;6.10;4.60;;;;;32.80;98194.00;;;;5073367;28;20523;-61
2023/06/20 12:04:58;;;;;;;5.13;4.63;;;;;32.90;98186.00;;;;5074405;28;20048;-60
2023/06/20 12:07:26;;;;;;;5.43;4.93;;;;;32.90;98185.00;;;;5074288;28;20052;-60
2023/06/20 12:09:53;;;;;;;6.25;5.32;;;;;32.70;98177.00;;;;5074278;28;20040;-61
2023/06/20 12:12:30;;;;;;;5.10;4.70;;;;;32.60;98178.00;;;;5074925;28;20447;-61
2023/06/20 12:14:56;;;;;;;5.55;4.78;;;;;32.60;98170.00;;;;5057368;28;20110;-61
2023/06/20 12:17:23;;;;;;;5.53;4.68;;;;;32.70;98162.00;;;;5074081;28;20425;-60
2023/06/20 12:19:53;;;;;;;5.55;5.05;;;;;32.80;98161.00;;;;5072531;28;20440;-60